Aérodrome :
LOGIN :

S'inscrire | Disclaimer

   EN    FR    IT 

 










Légende :    VFR   VFR Marginal   IFR   IFR Intensif   IFR Très Intensif
Visi : 
Plafond : 
>= 8 km
>= 3000ft
5 à 8 km
1000 à 3000 ft
1500m à 5 km
500 à 1000 ft
800 à 1500m
200 à 500 ft
< 800m
< 200 ft
Symboles :   Orages  Brouillard  Fortes neiges  Fortes précipitations  Vent > 20 kt
SIGMETs :   Divers  Orages  Givrage  Turbulence  Onde Orograph.  Cendres Volcan.






- Altitude de l'aérodrome : 440 ft


LPST - Sintra AB

DERNIER METAR :
  • 201100Z 25007KT 220V280 9999 SCT015 15/11 Q1009

METARs EXPIRÉS :
  • 201000Z 24002KT 9000 FEW004 SCT040 12/11 Q1009
  • 200900Z VRB01KT 7000 FEW004 FEW025CB SCT030 12/11 Q1009

TAF TAF LPST
Valide du 20 à 12h jusqu'au 20 à 21h UTC


201111Z 2012/2021 29010KT 9999 FEW015 SCT035
TEMPO 2012/2021 6000 SHRA SCT010 BKN014 FEW020TCU
PROB30
TEMPO 2012/2016 30012G22KT 4000 SHRA SCT008 BKN012 FEW018CB



MET'MAP, la Météo Aéronautique d'un coup d'oeil ! - Copyright ORBIFLY Décembre 2007 - Disclaimer

ORBIFLY MET'MAP TEAM :

Programmation & Développement : Alexandra Zaïnal
Conception & Développement : Baudouin d'Aumeries
Co-Programmation & Développement : Marc-Olivier Méhu
Soutien technique & logistique : Manuel Goepfert

Contact : metmap@orbifly.com




SOURCES & CREDITS :

   NOAA